Time;durP1;ratioP1;P1;durP2;ratioP2;P2;SDS_P1;SDS_P2;PMS_P1;PMS_P2;Temp;Humidity;BMP_temperature;BMP_pressure;BME280_temperature;BME280_humidity;BME280_pressure;Samples;Min_cycle;Max_cycle;Signal;HPM_P1;HPM_P2
2022/09/07 00:00:58;;;;;;;2.17;1.80;;;16.10;99.90;;;;;;5068640;28;20909;-51
2022/09/07 00:03:25;;;;;;;2.53;2.30;;;16.20;99.90;;;;;;5069659;28;20463;-49
2022/09/07 00:05:52;;;;;;;5.60;2.80;;;16.30;99.90;;;;;;5069214;28;20464;-51
2022/09/07 00:08:22;;;;;;;3.80;2.40;;;16.40;99.90;;;;;;5069353;28;20461;-50
2022/09/07 00:10:54;;;;;;;3.13;1.63;;;16.40;99.90;;;;;;5068695;28;20455;-50
2022/09/07 00:13:23;;;;;;;2.83;2.20;;;16.70;99.90;;;;;;5070685;28;20486;-49
2022/09/07 00:15:50;;;;;;;7.00;2.40;;;16.70;99.90;;;;;;5072601;28;20533;-50
2022/09/07 00:18:18;;;;;;;2.60;1.90;;;16.80;99.90;;;;;;5071253;28;20433;-50
2022/09/07 00:20:45;;;;;;;2.40;1.80;;;16.50;99.90;;;;;;5072111;28;20186;-50
2022/09/07 00:23:12;;;;;;;4.80;1.87;;;16.30;99.90;;;;;;5073233;28;20444;-51
2022/09/07 00:25:40;;;;;;;2.73;2.30;;;16.20;99.90;;;;;;5072374;28;21019;-49
2022/09/07 00:28:08;;;;;;;3.00;2.60;;;16.00;99.90;;;;;;5072733;28;20444;-50
2022/09/07 00:30:41;;;;;;;3.70;2.43;;;15.80;99.90;;;;;;5071929;28;20452;-50
2022/09/07 00:33:08;;;;;;;2.77;1.43;;;15.60;99.90;;;;;;5072537;28;20463;-50
2022/09/07 00:35:40;;;;;;;4.20;2.03;;;15.90;99.90;;;;;;5072371;28;20476;-51
2022/09/07 00:38:07;;;;;;;3.60;2.70;;;16.20;99.90;;;;;;5072440;28;20925;-50
2022/09/07 00:40:34;;;;;;;2.90;1.60;;;16.20;99.90;;;;;;5071528;28;20877;-49
2022/09/07 00:43:01;;;;;;;2.37;2.03;;;16.30;99.90;;;;;;5072478;28;20474;-50
2022/09/07 00:45:28;;;;;;;3.00;2.03;;;16.30;99.90;;;;;;5072397;28;20968;-50
2022/09/07 00:48:01;;;;;;;4.17;1.70;;;16.20;99.90;;;;;;5072262;28;20421;-50
2022/09/07 00:50:32;;;;;;;2.90;1.73;;;16.10;99.90;;;;;;5071620;28;20449;-49
2022/09/07 00:53:05;;;;;;;2.47;1.90;;;15.90;99.90;;;;;;5072279;28;20502;-49
2022/09/07 00:55:33;;;;;;;1.70;1.55;;;16.00;99.90;;;;;;5071900;28;20483;-50
2022/09/07 00:58:00;;;;;;;2.77;2.10;;;16.00;99.90;;;;;;5072189;28;20772;-50
2022/09/07 01:00:28;;;;;;;2.23;1.73;;;15.90;99.90;;;;;;5071345;28;20487;-50
2022/09/07 01:02:58;;;;;;;4.47;2.20;;;15.90;99.90;;;;;;5072118;28;20556;-49
2022/09/07 01:05:30;;;;;;;4.80;1.70;;;15.90;99.90;;;;;;5071779;28;20455;-51
2022/09/07 01:07:58;;;;;;;2.53;1.97;;;15.90;99.90;;;;;;5071867;28;20437;-50
2022/09/07 01:10:29;;;;;;;2.47;2.00;;;16.10;99.90;;;;;;5071358;28;20445;-49
2022/09/07 01:12:56;;;;;;;7.20;2.37;;;15.90;99.90;;;;;;5071871;28;20515;-50
2022/09/07 01:15:26;;;;;;;3.53;1.60;;;15.80;99.90;;;;;;5071722;28;20483;-50
2022/09/07 01:18:03;;;;;;;2.20;1.50;;;15.70;99.90;;;;;;5070448;28;20930;-49
2022/09/07 01:20:55;;;;;;;2.50;2.07;;;15.80;99.90;;;;;;5071149;28;20448;-50
2022/09/07 01:24:01;;;;;;;2.60;2.00;;;15.90;99.90;;;;;;5047556;28;20443;-51
2022/09/07 01:27:18;;;;;;;2.90;2.00;;;15.80;99.90;;;;;;5071530;28;20468;-51
2022/09/07 01:29:53;;;;;;;2.87;1.67;;;15.50;99.90;;;;;;5070898;28;20514;-50
2022/09/07 01:32:27;;;;;;;3.30;1.80;;;15.70;99.90;;;;;;5071698;28;20523;-49
2022/09/07 01:34:54;;;;;;;2.40;1.83;;;15.80;99.90;;;;;;5071498;28;20479;-51
2022/09/07 01:37:27;;;;;;;2.40;1.80;;;15.90;99.90;;;;;;5071334;28;20198;-50
2022/09/07 01:40:03;;;;;;;2.70;1.80;;;16.00;99.90;;;;;;5070716;28;20452;-50
2022/09/07 01:42:36;;;;;;;4.50;1.87;;;16.10;99.90;;;;;;5071386;28;20547;-50
2022/09/07 01:45:10;;;;;;;1.97;1.63;;;15.70;99.90;;;;;;5071143;28;20456;-52
2022/09/07 01:47:41;;;;;;;1.93;1.40;;;15.40;99.90;;;;;;5071264;28;20448;-49
2022/09/07 01:50:15;;;;;;;1.93;1.50;;;15.60;99.90;;;;;;5070275;28;20444;-50
2022/09/07 01:52:48;;;;;;;2.10;1.50;;;15.50;99.90;;;;;;5070960;28;20515;-50
2022/09/07 01:55:19;;;;;;;2.27;1.70;;;15.70;99.90;;;;;;5070842;28;20468;-49
2022/09/07 01:57:52;;;;;;;3.60;2.57;;;15.70;99.90;;;;;;5071048;28;20472;-49
2022/09/07 02:00:21;;;;;;;4.03;1.93;;;15.80;99.90;;;;;;5070430;28;20540;-50
2022/09/07 02:02:51;;;;;;;2.80;2.00;;;15.30;99.90;;;;;;5071363;28;20448;-50
2022/09/07 02:05:23;;;;;;;4.23;2.37;;;15.40;99.90;;;;;;5070621;28;20468;-49
2022/09/07 02:07:56;;;;;;;3.90;2.13;;;15.60;99.90;;;;;;5071023;28;20435;-49
2022/09/07 02:10:26;;;;;;;2.53;2.30;;;15.50;99.90;;;;;;5069889;28;20972;-50
2022/09/07 02:12:59;;;;;;;2.87;2.33;;;15.60;99.90;;;;;;5070868;28;20448;-51
2022/09/07 02:15:31;;;;;;;3.17;2.23;;;15.60;99.90;;;;;;5070427;28;20923;-50
2022/09/07 02:18:04;;;;;;;2.33;2.00;;;15.60;99.90;;;;;;5068905;28;20437;-50
2022/09/07 02:20:36;;;;;;;2.30;1.37;;;15.30;99.90;;;;;;5069818;28;20428;-49
2022/09/07 02:23:06;;;;;;;2.93;2.20;;;15.30;99.90;;;;;;5071033;28;20448;-50
2022/09/07 02:25:37;;;;;;;3.50;2.00;;;15.60;99.90;;;;;;5070100;28;20891;-50
2022/09/07 02:28:08;;;;;;;3.67;2.33;;;15.50;99.90;;;;;;5070435;28;20448;-50
2022/09/07 02:30:37;;;;;;;2.50;2.20;;;15.70;99.90;;;;;;5069802;28;20448;-49
2022/09/07 02:33:04;;;;;;;2.73;1.53;;;15.70;99.90;;;;;;5070345;28;20455;-49
2022/09/07 02:35:32;;;;;;;1.93;1.60;;;15.80;99.90;;;;;;5069246;28;20456;-50
2022/09/07 02:38:03;;;;;;;2.30;2.00;;;15.70;99.90;;;;;;5070242;28;20713;-50
2022/09/07 02:40:30;;;;;;;4.20;2.50;;;15.60;99.90;;;;;;5069469;28;20663;-49
2022/09/07 02:42:59;;;;;;;2.33;1.90;;;15.60;99.90;;;;;;5070370;28;20452;-50
2022/09/07 02:45:37;;;;;;;2.70;1.87;;;15.60;99.90;;;;;;5070115;28;20445;-50
2022/09/07 02:48:16;;;;;;;7.70;2.37;;;15.70;99.90;;;;;;5070184;28;20448;-50
2022/09/07 02:51:05;;;;;;;3.20;2.33;;;15.50;99.90;;;;;;5069130;28;20872;-50
2022/09/07 02:54:09;;;;;;;2.40;2.00;;;15.50;99.90;;;;;;5070219;28;20428;-48
2022/09/07 02:56:51;;;;;;;3.40;2.50;;;15.10;99.90;;;;;;5037757;28;20480;-50
2022/09/07 02:59:29;;;;;;;3.60;2.57;;;15.40;99.90;;;;;;5069542;28;20468;-50
2022/09/07 03:02:02;;;;;;;3.27;2.13;;;15.50;99.90;;;;;;5070135;28;20811;-50
2022/09/07 03:04:40;;;;;;;4.00;2.60;;;15.20;99.90;;;;;;5069908;28;20452;-51
2022/09/07 03:07:11;;;;;;;2.90;1.93;;;15.00;99.90;;;;;;5070007;28;20444;-49
2022/09/07 03:09:42;;;;;;;5.93;2.83;;;14.90;99.90;;;;;;5069498;28;20448;-49
2022/09/07 03:12:10;;;;;;;2.73;1.70;;;15.10;99.90;;;;;;5069919;28;20444;-52
2022/09/07 03:14:39;;;;;;;2.63;2.13;;;15.30;99.90;;;;;;5069824;28;20433;-50
2022/09/07 03:17:07;;;;;;;3.77;1.60;;;15.40;99.90;;;;;;5068183;28;20476;-46
2022/09/07 03:19:36;;;;;;;2.40;1.60;;;15.60;99.90;;;;;;5068978;28;20488;-50
2022/09/07 03:22:03;;;;;;;2.80;1.80;;;15.60;99.90;;;;;;5069841;28;20202;-50
2022/09/07 03:24:30;;;;;;;5.13;2.30;;;15.20;99.90;;;;;;5069586;28;20440;-50
2022/09/07 03:26:59;;;;;;;3.00;2.67;;;14.60;99.90;;;;;;5069940;28;20444;-50
2022/09/07 03:29:26;;;;;;;3.00;2.13;;;14.20;99.90;;;;;;5069024;28;20466;-50
2022/09/07 03:31:53;;;;;;;2.43;2.10;;;14.60;99.90;;;;;;5069497;28;20909;-50
2022/09/07 03:34:20;;;;;;;5.10;2.20;;;14.90;99.90;;;;;;5069774;28;20453;-50
2022/09/07 03:36:48;;;;;;;5.50;2.17;;;14.70;99.90;;;;;;5069615;28;20480;-50
2022/09/07 03:39:19;;;;;;;3.67;1.80;;;14.80;99.90;;;;;;5069041;28;20445;-49
2022/09/07 03:41:47;;;;;;;2.53;2.00;;;14.90;99.90;;;;;;5069728;28;20457;-50
2022/09/07 03:44:14;;;;;;;2.20;1.90;;;15.20;99.90;;;;;;5069653;28;20543;-50
2022/09/07 03:46:41;;;;;;;4.53;1.93;;;15.40;99.90;;;;;;5070241;28;20505;-50
2022/09/07 03:49:08;;;;;;;3.67;2.23;;;15.60;99.90;;;;;;5072634;28;20433;-49
2022/09/07 03:51:35;;;;;;;3.53;2.63;;;15.50;99.90;;;;;;5073484;28;20479;-49
2022/09/07 03:54:03;;;;;;;3.90;2.53;;;15.30;99.90;;;;;;5073183;28;20432;-51
2022/09/07 03:56:30;;;;;;;3.88;2.35;;;15.60;99.90;;;;;;5073058;28;20482;-50
2022/09/07 03:58:57;;;;;;;2.63;2.10;;;15.60;99.90;;;;;;5073237;28;20255;-50
2022/09/07 04:01:26;;;;;;;3.30;1.97;;;15.50;99.90;;;;;;5073462;28;20432;-50
2022/09/07 04:03:56;;;;;;;2.17;1.57;;;15.50;99.90;;;;;;5073063;28;20523;-50
2022/09/07 04:06:23;;;;;;;2.17;1.80;;;15.70;99.90;;;;;;5073167;28;20976;-50
2022/09/07 04:08:50;;;;;;;4.23;2.00;;;15.80;99.90;;;;;;5072477;28;20848;-49
2022/09/07 04:11:19;;;;;;;2.63;2.20;;;15.90;99.90;;;;;;5072899;28;20948;-50
2022/09/07 04:13:46;;;;;;;3.00;2.00;;;16.00;99.90;;;;;;5072980;28;20859;-49
2022/09/07 04:16:17;;;;;;;2.90;2.33;;;15.90;99.90;;;;;;5072448;28;21038;-49
2022/09/07 04:18:44;;;;;;;3.03;2.50;;;15.60;99.90;;;;;;5071048;28;20429;-49
2022/09/07 04:21:11;;;;;;;4.13;2.67;;;15.50;99.90;;;;;;5072513;28;20452;-50
2022/09/07 04:23:39;;;;;;;5.63;2.55;;;15.60;99.90;;;;;;5072831;28;20502;-50
2022/09/07 04:26:06;;;;;;;2.77;2.30;;;15.70;99.90;;;;;;5073700;28;20221;-50
2022/09/07 04:28:35;;;;;;;3.08;1.98;;;15.80;99.90;;;;;;5072575;28;20944;-52
2022/09/07 04:31:02;;;;;;;2.50;1.70;;;15.80;99.90;;;;;;5072341;28;20667;-49
2022/09/07 04:33:31;;;;;;;3.50;2.00;;;16.10;99.90;;;;;;5072730;28;20478;-49
2022/09/07 04:36:00;;;;;;;3.70;1.90;;;16.20;99.90;;;;;;5072447;28;20462;-50
2022/09/07 04:38:27;;;;;;;3.90;2.17;;;15.90;99.90;;;;;;5072690;28;20531;-50
2022/09/07 04:40:59;;;;;;;2.90;2.03;;;15.50;99.90;;;;;;5071628;28;20995;-52
2022/09/07 04:43:26;;;;;;;2.60;1.77;;;15.70;99.90;;;;;;5072585;28;20449;-50
2022/09/07 04:45:54;;;;;;;3.03;2.50;;;15.90;99.90;;;;;;5072124;28;20456;-49
2022/09/07 04:48:21;;;;;;;5.10;2.13;;;15.60;99.90;;;;;;5072333;28;20448;-50
2022/09/07 04:50:48;;;;;;;3.90;2.07;;;15.50;99.90;;;;;;5071682;28;20453;-51
2022/09/07 04:53:15;;;;;;;3.97;2.37;;;15.50;99.90;;;;;;5072207;28;20437;-49
2022/09/07 04:55:42;;;;;;;3.60;2.60;;;15.20;99.90;;;;;;5071979;28;20448;-50
2022/09/07 04:58:10;;;;;;;4.67;3.90;;;15.00;99.90;;;;;;5071397;28;20476;-49
2022/09/07 05:00:37;;;;;;;2.93;2.70;;;15.20;99.90;;;;;;5071614;28;20917;-51
2022/09/07 05:03:06;;;;;;;3.50;2.50;;;15.30;99.90;;;;;;5071640;28;20471;-50
2022/09/07 05:05:37;;;;;;;3.20;2.77;;;15.30;99.90;;;;;;5071545;28;20468;-50
2022/09/07 05:08:04;;;;;;;2.50;2.27;;;15.40;99.90;;;;;;5071601;28;20925;-50
2022/09/07 05:10:31;;;;;;;2.80;2.60;;;15.50;99.90;;;;;;5070744;28;20482;-51
2022/09/07 05:12:58;;;;;;;3.50;3.17;;;15.70;99.90;;;;;;5071500;28;20859;-49
2022/09/07 05:15:25;;;;;;;4.82;2.72;;;15.80;99.90;;;;;;5071097;28;20498;-49
2022/09/07 05:17:52;;;;;;;2.93;2.27;;;15.70;99.90;;;;;;5069238;28;20649;-46
2022/09/07 05:20:21;;;;;;;3.00;2.70;;;15.80;99.90;;;;;;5070718;28;20444;-49
2022/09/07 05:22:48;;;;;;;4.50;2.60;;;15.70;99.90;;;;;;5071647;28;20445;-50
2022/09/07 05:25:15;;;;;;;4.20;3.27;;;15.70;99.90;;;;;;5071119;28;20453;-49
2022/09/07 05:27:42;;;;;;;2.90;2.40;;;15.40;99.90;;;;;;5070920;28;20444;-50
2022/09/07 05:30:10;;;;;;;4.13;2.40;;;15.50;99.90;;;;;;5070422;28;20440;-50
2022/09/07 05:32:37;;;;;;;4.68;2.20;;;15.50;99.90;;;;;;5071477;28;20436;-52
2022/09/07 05:35:05;;;;;;;3.30;2.10;;;15.60;99.90;;;;;;5071045;28;20218;-49
2022/09/07 05:37:33;;;;;;;2.25;1.90;;;15.80;99.90;;;;;;5071031;28;20468;-50
2022/09/07 05:40:00;;;;;;;3.10;1.97;;;15.70;99.90;;;;;;5070194;28;20336;-50
2022/09/07 05:42:27;;;;;;;3.30;2.20;;;15.80;99.90;;;;;;5070770;28;20531;-49
2022/09/07 05:44:54;;;;;;;2.83;2.20;;;15.70;99.90;;;;;;5070484;28;20844;-52
2022/09/07 05:47:21;;;;;;;2.60;2.40;;;15.70;99.90;;;;;;5070796;28;20436;-50
2022/09/07 05:49:48;;;;;;;4.90;2.50;;;15.70;99.90;;;;;;5069955;28;20440;-51
2022/09/07 05:52:16;;;;;;;3.00;2.60;;;15.60;99.90;;;;;;5070709;28;20445;-49
2022/09/07 05:54:44;;;;;;;3.70;2.70;;;15.70;99.90;;;;;;5071013;28;20492;-51
2022/09/07 05:57:12;;;;;;;4.97;2.70;;;15.90;99.90;;;;;;5070609;28;20495;-51
2022/09/07 05:59:39;;;;;;;4.10;2.50;;;15.70;99.90;;;;;;5070020;28;20543;-50
2022/09/07 06:02:07;;;;;;;2.83;2.10;;;15.50;99.90;;;;;;5070926;28;20457;-51
2022/09/07 06:04:34;;;;;;;3.23;2.27;;;15.60;99.90;;;;;;5070267;28;20860;-50
2022/09/07 06:07:01;;;;;;;3.50;2.63;;;15.80;99.90;;;;;;5070197;28;20491;-49
2022/09/07 06:09:28;;;;;;;4.10;3.10;;;15.80;99.90;;;;;;5069779;28;20462;-50
2022/09/07 06:11:56;;;;;;;4.00;2.80;;;15.80;99.90;;;;;;5070483;28;20456;-50
2022/09/07 06:14:23;;;;;;;3.57;2.90;;;15.90;99.90;;;;;;5069974;28;20429;-49
2022/09/07 06:16:50;;;;;;;2.90;2.60;;;15.70;99.90;;;;;;5069216;28;20566;-50
2022/09/07 06:19:17;;;;;;;4.03;3.37;;;15.70;99.90;;;;;;5067936;28;20425;-49
2022/09/07 06:21:44;;;;;;;2.80;2.30;;;15.80;99.90;;;;;;5070394;28;20823;-50
2022/09/07 06:24:11;;;;;;;4.53;2.47;;;15.90;99.90;;;;;;5069885;28;20470;-50
2022/09/07 06:26:38;;;;;;;2.90;2.60;;;15.70;99.90;;;;;;5069910;28;20499;-50
2022/09/07 06:29:07;;;;;;;4.70;3.30;;;15.80;99.90;;;;;;5069362;28;20456;-49
2022/09/07 06:31:34;;;;;;;3.65;2.83;;;15.30;99.90;;;;;;5070241;28;20455;-49
2022/09/07 06:34:01;;;;;;;3.40;2.73;;;15.20;99.90;;;;;;5070088;28;20290;-50
2022/09/07 06:36:28;;;;;;;3.30;3.00;;;15.40;99.90;;;;;;5069638;28;21045;-50
2022/09/07 06:39:00;;;;;;;4.10;3.33;;;15.60;99.90;;;;;;5069199;28;20837;-50
2022/09/07 06:41:28;;;;;;;3.83;2.70;;;15.70;99.90;;;;;;5069793;28;20455;-50
2022/09/07 06:43:57;;;;;;;3.90;3.38;;;15.80;99.90;;;;;;5070115;28;20442;-50
2022/09/07 06:46:25;;;;;;;3.63;3.20;;;15.90;99.90;;;;;;5069682;28;20570;-49
2022/09/07 06:48:53;;;;;;;4.43;2.77;;;15.70;99.90;;;;;;5069248;28;20869;-50
2022/09/07 06:51:25;;;;;;;3.50;2.97;;;15.30;99.90;;;;;;5069747;28;20437;-50
2022/09/07 06:53:55;;;;;;;4.53;2.90;;;15.30;99.90;;;;;;5069747;28;20440;-49
2022/09/07 06:56:22;;;;;;;3.45;3.10;;;15.50;99.90;;;;;;5069565;28;20561;-50
2022/09/07 06:58:53;;;;;;;3.03;2.50;;;15.70;99.90;;;;;;5068539;28;21004;-50
2022/09/07 07:01:22;;;;;;;3.00;2.53;;;15.80;99.90;;;;;;5069952;28;20456;-50
2022/09/07 07:03:52;;;;;;;4.05;2.65;;;15.90;99.90;;;;;;5069303;28;20439;-51
2022/09/07 07:06:19;;;;;;;2.97;2.67;;;16.10;99.90;;;;;;5069369;28;20268;-50
2022/09/07 07:08:47;;;;;;;3.33;2.50;;;16.20;99.90;;;;;;5069082;28;20443;-47
2022/09/07 07:11:15;;;;;;;4.70;2.97;;;16.20;99.90;;;;;;5069366;28;20436;-50
2022/09/07 07:13:43;;;;;;;3.20;2.70;;;16.10;99.90;;;;;;5069557;28;20518;-51
2022/09/07 07:16:12;;;;;;;7.00;3.10;;;16.20;99.90;;;;;;5069389;28;20562;-52
2022/09/07 07:18:40;;;;;;;3.87;3.00;;;16.10;99.90;;;;;;5067450;28;20531;-50
2022/09/07 07:21:10;;;;;;;3.50;3.20;;;16.00;99.90;;;;;;5069716;28;20456;-50
2022/09/07 07:23:37;;;;;;;5.30;3.00;;;16.10;99.90;;;;;;5076266;28;20507;-51
2022/09/07 07:26:06;;;;;;;5.45;2.70;;;16.20;99.90;;;;;;5076048;28;20559;-50
2022/09/07 07:28:33;;;;;;;2.90;2.50;;;16.30;99.90;;;;;;5075784;28;20198;-50
2022/09/07 07:31:01;;;;;;;3.90;2.60;;;16.40;99.90;;;;;;5075439;28;20452;-50
2022/09/07 07:33:30;;;;;;;3.03;2.20;;;16.50;99.90;;;;;;5075952;28;20444;-51
2022/09/07 07:36:12;;;;;;;4.33;2.30;;;16.60;99.90;;;;;;5076387;28;20499;-50
2022/09/07 07:38:39;;;;;;;5.63;3.50;;;16.50;99.90;;;;;;5075897;28;20522;-52
2022/09/07 07:41:07;;;;;;;5.50;3.90;;;16.40;99.90;;;;;;5075786;28;20517;-51
2022/09/07 07:43:34;;;;;;;5.20;3.93;;;16.40;99.90;;;;;;5076043;28;20502;-51
2022/09/07 07:46:01;;;;;;;4.05;3.22;;;16.30;99.90;;;;;;5075879;28;20471;-50
2022/09/07 07:48:29;;;;;;;3.90;2.63;;;16.40;99.90;;;;;;5075702;28;20206;-50
2022/09/07 07:51:00;;;;;;;3.70;3.20;;;16.40;99.90;;;;;;5075059;28;20482;-50
2022/09/07 07:53:29;;;;;;;3.67;3.33;;;16.40;99.90;;;;;;5075979;28;20445;-50
2022/09/07 07:55:59;;;;;;;4.43;3.20;;;16.40;99.90;;;;;;5075851;28;20464;-51
2022/09/07 07:58:26;;;;;;;3.30;2.80;;;16.50;99.90;;;;;;5075667;28;20876;-50
2022/09/07 08:00:53;;;;;;;3.10;2.80;;;16.30;99.90;;;;;;5074915;28;20584;-50
2022/09/07 08:03:21;;;;;;;4.27;2.60;;;16.30;99.90;;;;;;5076042;28;20691;-50
2022/09/07 08:05:48;;;;;;;3.77;2.50;;;16.40;99.90;;;;;;5075470;28;20761;-51
2022/09/07 08:08:15;;;;;;;4.53;2.80;;;16.50;99.90;;;;;;5075802;28;20813;-50
2022/09/07 08:10:46;;;;;;;6.57;2.60;;;16.50;99.90;;;;;;5075052;28;20543;-50
2022/09/07 08:13:14;;;;;;;3.10;2.63;;;16.60;99.90;;;;;;5075800;28;20483;-50
2022/09/07 08:15:43;;;;;;;3.87;2.57;;;16.60;99.90;;;;;;5075319;28;20480;-50
2022/09/07 08:18:11;;;;;;;5.83;2.60;;;16.40;99.90;;;;;;5073345;28;20464;-50
2022/09/07 08:20:39;;;;;;;3.97;2.37;;;16.50;99.90;;;;;;5074898;28;20943;-50
2022/09/07 08:23:07;;;;;;;2.70;2.40;;;16.50;99.90;;;;;;5075527;28;20432;-50
2022/09/07 08:25:34;;;;;;;2.80;2.50;;;16.70;99.90;;;;;;5075366;28;20307;-50
2022/09/07 08:28:03;;;;;;;2.97;2.58;;;16.80;99.90;;;;;;5075381;28;20797;-50
2022/09/07 08:30:30;;;;;;;2.80;2.50;;;16.90;99.90;;;;;;5074788;28;20289;-51
2022/09/07 08:32:57;;;;;;;5.90;2.90;;;17.00;99.90;;;;;;5074245;28;20450;-50
2022/09/07 08:35:24;;;;;;;5.13;2.43;;;17.00;99.90;;;;;;5071784;28;20466;-49
2022/09/07 08:37:51;;;;;;;5.20;2.43;;;17.00;99.90;;;;;;5072353;28;20528;-50
2022/09/07 08:40:20;;;;;;;2.90;2.47;;;17.00;99.90;;;;;;5071579;28;20472;-49
2022/09/07 08:42:58;;;;;;;2.77;2.30;;;17.10;99.90;;;;;;5072409;28;20543;-51
2022/09/07 08:45:32;;;;;;;4.00;2.40;;;17.00;99.90;;;;;;5072325;28;20834;-50
2022/09/07 08:47:59;;;;;;;2.87;2.57;;;17.20;99.90;;;;;;5072185;28;20585;-51
2022/09/07 08:50:32;;;;;;;3.33;2.63;;;17.40;99.90;;;;;;5071343;28;20444;-50
2022/09/07 08:53:04;;;;;;;4.10;2.93;;;17.60;99.90;;;;;;5072288;28;20460;-51
2022/09/07 08:55:34;;;;;;;3.53;2.90;;;17.70;99.90;;;;;;5072001;28;20464;-51
2022/09/07 08:58:09;;;;;;;3.55;2.42;;;17.90;99.90;;;;;;5072058;28;20464;-51
2022/09/07 09:00:38;;;;;;;3.17;2.70;;;18.10;99.90;;;;;;5071580;28;20610;-51
2022/09/07 09:03:07;;;;;;;3.63;2.80;;;18.30;99.90;;;;;;5071780;28;20452;-52
2022/09/07 09:05:43;;;;;;;3.30;2.67;;;18.30;99.90;;;;;;5071764;28;20966;-51
2022/09/07 09:08:26;;;;;;;3.13;2.33;;;18.40;99.90;;;;;;5071816;28;20500;-51
2022/09/07 09:11:01;;;;;;;3.10;2.80;;;18.50;99.90;;;;;;5070847;28;20191;-51
2022/09/07 09:13:44;;;;;;;3.20;2.90;;;18.50;99.90;;;;;;5071506;28;20448;-51
2022/09/07 09:16:18;;;;;;;3.17;2.87;;;18.50;99.90;;;;;;5071209;28;20448;-51
2022/09/07 09:19:04;;;;;;;3.00;2.70;;;18.40;99.90;;;;;;5068888;28;20468;-50
2022/09/07 09:21:31;;;;;;;3.10;1.97;;;18.50;99.90;;;;;;5071438;28;20448;-51
2022/09/07 09:24:05;;;;;;;2.90;2.70;;;18.60;99.90;;;;;;5071533;28;20448;-51
2022/09/07 09:26:35;;;;;;;2.50;2.27;;;18.70;99.90;;;;;;5071248;28;20864;-51
2022/09/07 09:29:13;;;;;;;4.27;3.03;;;18.90;99.90;;;;;;5070672;28;20711;-51
2022/09/07 09:31:41;;;;;;;2.83;2.53;;;18.70;99.90;;;;;;5071389;28;20494;-50
2022/09/07 09:34:11;;;;;;;3.90;2.43;;;18.70;99.90;;;;;;5071059;28;20464;-51
2022/09/07 09:36:44;;;;;;;3.80;2.80;;;18.50;99.90;;;;;;5071155;28;20465;-50
2022/09/07 09:39:29;;;;;;;3.73;2.63;;;18.90;99.90;;;;;;5070260;28;20876;-51
2022/09/07 09:41:58;;;;;;;2.50;2.20;;;18.90;99.90;;;;;;5071229;28;20884;-50
2022/09/07 09:44:29;;;;;;;3.05;2.30;;;18.90;99.90;;;;;;5070575;28;20485;-52
2022/09/07 09:46:57;;;;;;;2.97;2.27;;;18.80;99.90;;;;;;5071034;28;20230;-50
2022/09/07 09:49:26;;;;;;;3.30;2.97;;;18.70;99.90;;;;;;5070489;28;20441;-50
2022/09/07 09:51:56;;;;;;;2.92;2.20;;;19.00;99.90;;;;;;5070858;28;20448;-50
2022/09/07 09:54:26;;;;;;;3.60;2.70;;;19.00;99.90;;;;;;5071079;28;20197;-51
2022/09/07 09:56:53;;;;;;;3.37;3.07;;;19.30;99.90;;;;;;5071271;28;20635;-51
2022/09/07 09:59:23;;;;;;;3.30;3.00;;;19.30;99.90;;;;;;5069834;28;20546;-53
2022/09/07 10:01:51;;;;;;;5.23;2.70;;;19.10;99.90;;;;;;5070912;28;20464;-51
2022/09/07 10:04:29;;;;;;;4.53;2.70;;;19.10;99.90;;;;;;5070609;28;20444;-50
2022/09/07 10:07:00;;;;;;;4.23;2.97;;;19.30;99.90;;;;;;5070417;28;20468;-51
2022/09/07 10:09:33;;;;;;;3.40;3.10;;;19.40;99.90;;;;;;5069897;28;20439;-50
2022/09/07 10:12:03;;;;;;;3.80;2.60;;;19.60;99.90;;;;;;5070523;28;20432;-50
2022/09/07 10:14:32;;;;;;;3.17;2.80;;;20.00;99.90;;;;;;5070494;28;20441;-50
2022/09/07 10:17:01;;;;;;;7.50;3.73;;;20.00;99.90;;;;;;5070043;28;20450;-50
2022/09/07 10:19:34;;;;;;;3.05;2.80;;;20.10;99.90;;;;;;5067865;28;20499;-52
2022/09/07 10:22:04;;;;;;;3.03;2.73;;;20.10;99.90;;;;;;5070331;28;20198;-51
2022/09/07 10:24:37;;;;;;;4.00;3.10;;;19.90;99.90;;;;;;5069999;28;20463;-50
2022/09/07 10:27:19;;;;;;;4.87;2.90;;;20.00;99.90;;;;;;5071422;28;20429;-51
2022/09/07 10:29:46;;;;;;;4.03;2.77;;;20.00;99.90;;;;;;5069491;28;20782;-50
2022/09/07 10:32:41;;;;;;;3.60;3.20;;;20.00;99.90;;;;;;5070558;28;20698;-50
2022/09/07 10:35:17;;;;;;;3.20;2.83;;;20.00;99.90;;;;;;5069908;28;20472;-51
2022/09/07 10:37:53;;;;;;;4.73;2.97;;;20.10;99.90;;;;;;5070238;28;20445;-52
2022/09/07 10:40:33;;;;;;;5.30;3.13;;;20.10;99.90;;;;;;5069209;28;20527;-51
2022/09/07 10:43:22;;;;;;;3.63;3.27;;;20.00;99.90;;;;;;5069904;28;20925;-50
2022/09/07 10:46:07;;;;;;;3.80;3.00;;;20.10;99.90;;;;;;5069921;28;20437;-50
2022/09/07 10:48:43;;;;;;;4.90;3.15;;;19.90;99.90;;;;;;5069893;28;20511;-50
2022/09/07 10:51:16;;;;;;;4.77;3.03;;;20.00;99.90;;;;;;5069735;28;20244;-50
2022/09/07 10:53:51;;;;;;;3.80;3.30;;;19.90;99.90;;;;;;5069718;28;20448;-52
2022/09/07 10:56:27;;;;;;;3.40;3.10;;;20.00;99.90;;;;;;5068855;28;20878;-52
2022/09/07 10:59:02;;;;;;;3.40;3.10;;;20.10;99.90;;;;;;5069222;28;20480;-51
2022/09/07 11:01:42;;;;;;;4.25;3.28;;;20.00;99.90;;;;;;5069954;28;20431;-50
2022/09/07 11:04:38;;;;;;;4.28;3.10;;;20.00;99.90;;;;;;5069654;28;20200;-51
2022/09/07 11:07:19;;;;;;;3.50;2.77;;;20.00;99.90;;;;;;5069658;28;20285;-51
2022/09/07 11:09:57;;;;;;;3.07;2.77;;;19.90;99.90;;;;;;5068907;28;20486;-51
2022/09/07 11:12:28;;;;;;;4.00;3.70;;;20.00;99.90;;;;;;5069798;28;20728;-50
2022/09/07 11:15:07;;;;;;;2.70;2.50;;;20.00;99.90;;;;;;5069281;28;20465;-51
2022/09/07 11:17:43;;;;;;;7.30;3.27;;;20.10;99.90;;;;;;5067258;28;21031;-50
2022/09/07 11:20:22;;;;;;;4.97;3.60;;;20.20;99.90;;;;;;5068651;28;20475;-51
2022/09/07 11:22:54;;;;;;;2.93;2.63;;;20.30;99.90;;;;;;5069323;28;20447;-51
2022/09/07 11:25:26;;;;;;;2.78;2.58;;;20.30;99.90;;;;;;5069384;28;20479;-52
2022/09/07 11:27:58;;;;;;;4.20;2.83;;;20.30;99.90;;;;;;5069474;28;20206;-49
2022/09/07 11:30:30;;;;;;;3.20;2.77;;;20.30;99.90;;;;;;5068583;28;20534;-50
2022/09/07 11:33:02;;;;;;;2.67;2.47;;;20.30;99.90;;;;;;5069359;28;20455;-50
2022/09/07 11:35:39;;;;;;;2.87;2.57;;;20.20;99.90;;;;;;5069232;28;20518;-50
2022/09/07 11:38:16;;;;;;;3.10;2.70;;;20.40;99.90;;;;;;5068868;28;20435;-51
2022/09/07 11:40:53;;;;;;;3.03;2.70;;;20.50;99.90;;;;;;5068585;28;20498;-50
2022/09/07 11:43:24;;;;;;;2.83;2.47;;;20.60;99.90;;;;;;5069178;28;20440;-50
2022/09/07 11:45:54;;;;;;;3.60;3.13;;;20.60;99.90;;;;;;5068958;28;20233;-50
2022/09/07 11:48:24;;;;;;;2.87;2.60;;;20.70;99.90;;;;;;5068828;28;20864;-50
2022/09/07 11:50:59;;;;;;;3.60;3.20;;;20.70;99.90;;;;;;5068404;28;20510;-50
2022/09/07 11:53:30;;;;;;;3.10;2.43;;;20.70;99.90;;;;;;5069246;28;20440;-49
2022/09/07 11:56:00;;;;;;;3.10;2.60;;;20.60;99.90;;;;;;5068987;28;20472;-50
2022/09/07 11:58:56;;;;;;;2.93;2.60;;;20.70;99.90;;;;;;5069102;28;20472;-51
2022/09/07 12:01:32;;;;;;;2.80;2.23;;;20.70;99.90;;;;;;5069084;28;20915;-50
2022/09/07 12:04:28;;;;;;;3.60;3.13;;;20.70;99.90;;;;;;5068999;28;20452;-50
2022/09/07 12:07:35;;;;;;;3.00;2.80;;;20.80;99.90;;;;;;5068974;28;20443;-50
2022/09/07 12:10:45;;;;;;;3.17;2.87;;;20.90;99.90;;;;;;5072375;28;20493;-50
2022/09/07 12:13:40;;;;;;;4.77;2.57;;;21.20;99.90;;;;;;5042954;28;20937;-49
2022/09/07 12:16:11;;;;;;;5.90;2.75;;;21.20;99.90;;;;;;5072374;28;20527;-50
2022/09/07 12:19:12;;;;;;;2.60;2.40;;;21.20;99.90;;;;;;5070357;28;20218;-51
2022/09/07 12:21:42;;;;;;;3.33;2.80;;;21.20;99.90;;;;;;5072451;28;20953;-49
2022/09/07 12:24:42;;;;;;;3.20;2.90;;;21.10;99.90;;;;;;5072564;28;20479;-49
2022/09/07 12:27:38;;;;;;;3.73;3.10;;;21.10;99.90;;;;;;5072440;28;20448;-50
2022/09/07 12:30:51;;;;;;;3.40;3.10;;;21.20;99.90;;;;;;5066112;28;20547;-49
2022/09/07 12:33:34;;;;;;;3.20;2.80;;;21.10;99.90;;;;;;5072338;28;20439;-49
2022/09/07 12:36:02;;;;;;;3.30;2.60;;;21.10;99.90;;;;;;5071757;28;20924;-49
2022/09/07 12:39:06;;;;;;;3.60;2.90;;;21.20;99.90;;;;;;5072055;28;20502;-50
2022/09/07 12:41:51;;;;;;;3.10;2.80;;;21.20;99.90;;;;;;5072223;28;20532;-51
2022/09/07 12:44:24;;;;;;;3.00;2.70;;;21.30;99.90;;;;;;5072492;28;20527;-51
2022/09/07 12:46:57;;;;;;;3.17;2.87;;;21.30;99.90;;;;;;5072022;28;20501;-51
2022/09/07 12:49:47;;;;;;;2.63;2.40;;;21.30;99.90;;;;;;5071334;28;20514;-51
2022/09/07 12:52:46;;;;;;;3.40;2.93;;;21.30;99.90;;;;;;5071844;28;20429;-51
2022/09/07 12:55:42;;;;;;;4.03;3.00;;;21.40;99.90;;;;;;5071879;28;20466;-52
2022/09/07 12:58:24;;;;;;;3.13;2.83;;;21.40;99.90;;;;;;5058816;28;20507;-51
2022/09/07 13:01:13;;;;;;;3.67;2.70;;;21.40;99.90;;;;;;5070857;28;20484;-51
2022/09/07 13:03:59;;;;;;;2.97;2.67;;;21.50;99.90;;;;;;5072042;28;20452;-51
2022/09/07 13:06:40;;;;;;;3.53;2.77;;;21.60;99.90;;;;;;5071648;28;20525;-51
2022/09/07 13:09:36;;;;;;;3.77;2.90;;;21.70;99.90;;;;;;5070853;28;20443;-51
2022/09/07 13:12:19;;;;;;;3.00;2.70;;;21.60;99.90;;;;;;5058312;28;20444;-51
2022/09/07 13:14:52;;;;;;;3.77;3.20;;;21.50;99.90;;;;;;5071638;28;20494;-50